createdAt,value
2018-05-14T00:00:59.241Z,16.30
2018-05-14T00:03:25.808Z,16.20
2018-05-14T00:05:52.342Z,16.30
2018-05-14T00:08:18.923Z,16.40
2018-05-14T00:10:45.468Z,16.30
2018-05-14T00:13:12.044Z,16.40
2018-05-14T00:15:38.988Z,16.30
2018-05-14T00:18:05.547Z,16.30
2018-05-14T00:20:32.479Z,15.90
2018-05-14T00:22:59.032Z,15.90
2018-05-14T00:25:25.612Z,15.90
2018-05-14T00:27:52.543Z,16.00
2018-05-14T00:30:19.099Z,16.00
2018-05-14T00:32:46.049Z,16.00
2018-05-14T00:35:12.955Z,15.80
2018-05-14T00:37:39.527Z,15.90
2018-05-14T00:40:06.106Z,15.70
2018-05-14T00:42:33.022Z,15.50
2018-05-14T00:44:59.636Z,15.50
2018-05-14T00:47:26.184Z,15.60
2018-05-14T00:49:52.755Z,15.60
2018-05-14T00:52:19.336Z,15.60
2018-05-14T00:54:58.116Z,15.60
2018-05-14T00:57:24.680Z,15.60
2018-05-14T00:59:51.220Z,15.60
2018-05-14T01:02:17.809Z,15.50
2018-05-14T01:04:44.347Z,15.20
2018-05-14T01:07:10.924Z,15.20
2018-05-14T01:09:37.515Z,15.30
2018-05-14T01:12:04.080Z,15.30
2018-05-14T01:14:30.652Z,15.30
2018-05-14T01:16:57.192Z,15.20
2018-05-14T01:19:23.834Z,15.20
2018-05-14T01:21:50.417Z,15.30
2018-05-14T01:24:17.324Z,15.40
2018-05-14T01:26:43.899Z,15.40
2018-05-14T01:29:10.440Z,15.30
2018-05-14T01:31:37.016Z,15.30
2018-05-14T01:34:03.968Z,15.20
2018-05-14T01:36:37.935Z,15.10
2018-05-14T01:39:04.552Z,15.10
2018-05-14T01:41:31.480Z,15.10
2018-05-14T01:43:58.120Z,15.10
2018-05-14T01:46:24.666Z,15.00
2018-05-14T01:48:51.243Z,15.00
2018-05-14T01:51:18.218Z,14.80
2018-05-14T01:53:44.760Z,14.80
2018-05-14T01:56:11.366Z,14.80
2018-05-14T01:58:37.915Z,14.80
2018-05-14T02:01:04.496Z,14.80
2018-05-14T02:03:31.450Z,14.80
2018-05-14T02:05:58.356Z,14.80
2018-05-14T02:08:24.940Z,14.80
2018-05-14T02:10:51.523Z,14.80
2018-05-14T02:13:18.113Z,14.90
2018-05-14T02:15:44.695Z,14.90
2018-05-14T02:18:11.612Z,15.00
2018-05-14T02:20:38.200Z,15.00
2018-05-14T02:23:05.097Z,15.20
2018-05-14T02:25:31.668Z,15.20
2018-05-14T02:27:58.236Z,15.30
2018-05-14T02:30:24.781Z,15.40
2018-05-14T02:32:51.344Z,15.40
2018-05-14T02:35:18.252Z,15.40
2018-05-14T02:37:44.787Z,15.40
2018-05-14T02:40:11.348Z,15.40
2018-05-14T02:42:37.928Z,15.50
2018-05-14T02:45:04.520Z,15.50
2018-05-14T02:47:31.103Z,15.60
2018-05-14T02:49:57.684Z,15.60
2018-05-14T02:52:24.596Z,15.80
2018-05-14T02:54:51.167Z,15.80
2018-05-14T02:57:17.704Z,15.70
2018-05-14T02:59:44.278Z,15.70
2018-05-14T03:02:11.232Z,15.60
2018-05-14T03:04:38.149Z,15.70
2018-05-14T03:07:04.780Z,15.70
2018-05-14T03:09:31.336Z,15.70
2018-05-14T03:11:57.915Z,15.80
2018-05-14T03:14:24.507Z,15.80
2018-05-14T03:16:51.076Z,15.80
2018-05-14T03:19:17.657Z,15.80
2018-05-14T03:21:44.204Z,15.80
2018-05-14T03:24:10.784Z,15.80
2018-05-14T03:26:37.779Z,15.80
2018-05-14T03:29:04.348Z,15.80
2018-05-14T03:31:31.316Z,15.70
2018-05-14T03:33:57.855Z,15.70
2018-05-14T03:36:24.432Z,15.70
2018-05-14T03:38:51.439Z,15.60
2018-05-14T03:41:17.973Z,15.60
2018-05-14T03:43:44.555Z,15.60
2018-05-14T03:46:11.145Z,15.60
2018-05-14T03:48:38.100Z,15.50
2018-05-14T03:51:05.045Z,15.50
2018-05-14T03:53:31.956Z,15.40
2018-05-14T03:55:58.524Z,15.40
2018-05-14T03:58:37.247Z,15.40
2018-05-14T04:01:11.849Z,15.50
2018-05-14T04:03:50.588Z,15.50
2018-05-14T04:06:29.328Z,15.40
2018-05-14T04:08:55.875Z,15.40
2018-05-14T04:11:23.356Z,15.40
2018-05-14T04:13:49.946Z,15.50
2018-05-14T04:16:16.864Z,15.50
2018-05-14T04:18:43.436Z,15.40
2018-05-14T04:21:09.967Z,15.40
2018-05-14T04:23:36.536Z,15.50
2018-05-14T04:26:03.156Z,15.50
2018-05-14T04:28:29.692Z,15.50
2018-05-14T04:30:56.253Z,15.50
2018-05-14T04:33:22.789Z,15.60
2018-05-14T04:35:49.411Z,15.60
2018-05-14T04:38:15.985Z,15.70
2018-05-14T04:40:42.533Z,15.70
2018-05-14T04:43:09.103Z,15.70
2018-05-14T04:45:35.822Z,15.80
2018-05-14T04:48:02.462Z,15.80
2018-05-14T04:50:29.077Z,15.80
2018-05-14T04:52:56.034Z,15.80
2018-05-14T04:55:22.991Z,15.90
2018-05-14T04:57:49.931Z,15.90
2018-05-14T05:00:16.625Z,15.90
2018-05-14T05:02:43.204Z,15.90
2018-05-14T05:05:09.743Z,15.90
2018-05-14T05:07:36.342Z,15.80
2018-05-14T05:10:03.273Z,15.80
2018-05-14T05:12:29.908Z,15.80
2018-05-14T05:14:56.456Z,15.70
2018-05-14T05:17:23.016Z,15.80
2018-05-14T05:19:49.615Z,15.80
2018-05-14T05:22:16.161Z,15.90
2018-05-14T05:24:42.748Z,15.90
2018-05-14T05:27:09.297Z,15.90
2018-05-14T05:29:35.860Z,15.90
2018-05-14T05:32:02.542Z,15.90
2018-05-14T05:34:29.121Z,15.90
2018-05-14T05:36:55.712Z,15.90
2018-05-14T05:39:22.295Z,15.90
2018-05-14T05:41:48.861Z,16.00
2018-05-14T05:44:15.443Z,15.90
2018-05-14T05:46:42.036Z,16.00
2018-05-14T05:49:08.576Z,15.90
2018-05-14T05:51:35.558Z,16.00
2018-05-14T05:54:02.116Z,16.00
2018-05-14T05:56:28.705Z,15.80
2018-05-14T05:58:55.300Z,15.80
2018-05-14T06:01:21.905Z,15.90
2018-05-14T06:03:48.461Z,15.90
2018-05-14T06:06:16.445Z,16.00
2018-05-14T06:08:43.049Z,16.00
2018-05-14T06:11:09.661Z,15.90
2018-05-14T06:13:36.201Z,16.00
2018-05-14T06:16:02.852Z,16.00
2018-05-14T06:18:29.412Z,16.00
2018-05-14T06:20:55.994Z,15.90
2018-05-14T06:23:22.568Z,16.00
2018-05-14T06:25:49.421Z,16.10
2018-05-14T06:28:16.018Z,16.20
2018-05-14T06:30:42.555Z,16.30
2018-05-14T06:33:09.137Z,16.30
2018-05-14T06:35:35.769Z,16.50
2018-05-14T06:38:02.308Z,16.70
2018-05-14T06:40:28.884Z,16.90
2018-05-14T06:42:55.425Z,17.00
2018-05-14T06:45:22.004Z,17.30
2018-05-14T06:47:48.969Z,17.50
2018-05-14T06:50:15.953Z,17.50
2018-05-14T06:52:54.357Z,17.50
2018-05-14T06:55:20.938Z,17.50
2018-05-14T06:57:47.528Z,17.50
2018-05-14T07:00:14.109Z,17.60
2018-05-14T07:02:41.025Z,17.40
2018-05-14T07:05:07.612Z,17.40
2018-05-14T07:07:34.573Z,17.60
2018-05-14T07:10:01.529Z,17.70
2018-05-14T07:12:28.469Z,17.70
2018-05-14T07:14:55.019Z,17.70
2018-05-14T07:17:21.616Z,17.80
2018-05-14T07:19:48.164Z,17.80
2018-05-14T07:22:14.725Z,17.80
2018-05-14T07:24:41.383Z,17.90
2018-05-14T07:27:08.280Z,18.00
2018-05-14T07:29:35.256Z,18.00
2018-05-14T07:32:01.809Z,18.00
2018-05-14T07:34:28.432Z,18.10
2018-05-14T07:36:55.372Z,18.20
2018-05-14T07:39:21.915Z,18.20
2018-05-14T07:41:48.505Z,18.30
2018-05-14T07:44:15.072Z,18.50
2018-05-14T07:46:41.663Z,18.50
2018-05-14T07:49:08.240Z,18.40
2018-05-14T07:51:35.168Z,18.60
2018-05-14T07:54:01.772Z,18.60
2018-05-14T07:56:28.364Z,18.60
2018-05-14T07:58:54.944Z,18.80
2018-05-14T08:01:21.523Z,19.00
2018-05-14T08:03:48.080Z,19.00
2018-05-14T08:06:14.676Z,19.20
2018-05-14T08:08:41.591Z,18.90
2018-05-14T08:11:08.203Z,18.90
2018-05-14T08:13:34.792Z,18.80
2018-05-14T08:16:01.341Z,18.60
2018-05-14T08:18:27.924Z,18.50
2018-05-14T08:20:54.837Z,18.60
2018-05-14T08:23:21.420Z,18.60
2018-05-14T08:25:48.397Z,18.80
2018-05-14T08:28:14.936Z,18.80
2018-05-14T08:33:15.077Z,19.20
2018-05-14T08:35:42.016Z,19.30
2018-05-14T08:38:08.599Z,19.30
2018-05-14T08:40:35.516Z,19.40
2018-05-14T08:43:02.108Z,19.40
2018-05-14T08:45:28.641Z,19.40
2018-05-14T08:47:55.649Z,19.70
2018-05-14T08:50:22.218Z,19.70
2018-05-14T08:52:48.777Z,20.00
2018-05-14T08:55:15.384Z,20.20
2018-05-14T08:57:41.977Z,20.40
2018-05-14T09:00:08.556Z,20.30
2018-05-14T09:02:35.135Z,20.20
2018-05-14T09:05:01.692Z,20.20
2018-05-14T09:07:28.280Z,20.30
2018-05-14T09:09:54.834Z,20.30
2018-05-14T09:12:21.788Z,20.20
2018-05-14T09:14:48.780Z,20.50
2018-05-14T09:17:15.330Z,20.50
2018-05-14T09:19:41.973Z,20.50
2018-05-14T09:22:08.869Z,20.90
2018-05-14T09:24:35.420Z,21.00
2018-05-14T09:27:01.997Z,21.20
2018-05-14T09:29:28.952Z,21.00
2018-05-14T09:31:55.871Z,21.10
2018-05-14T09:34:22.463Z,21.10
2018-05-14T09:36:49.052Z,20.70
2018-05-14T09:39:15.636Z,20.70
2018-05-14T09:41:42.216Z,21.50
2018-05-14T09:44:08.782Z,21.80
2018-05-14T09:46:35.369Z,21.70
2018-05-14T09:49:01.921Z,21.70
2018-05-14T09:51:28.507Z,21.00
2018-05-14T09:53:55.076Z,21.10
2018-05-14T09:56:24.197Z,21.40
2018-05-14T09:58:50.824Z,21.30
2018-05-14T10:01:17.420Z,21.50
2018-05-14T10:03:44.391Z,22.70
2018-05-14T10:06:11.377Z,22.70
2018-05-14T10:08:37.911Z,22.70
2018-05-14T10:11:04.507Z,22.90
2018-05-14T10:13:31.243Z,23.00
2018-05-14T10:15:58.047Z,21.50
2018-05-14T10:18:25.068Z,21.60
2018-05-14T10:20:51.603Z,21.60
2018-05-14T10:23:18.252Z,21.60
2018-05-14T10:25:44.761Z,21.60
2018-05-14T10:28:11.361Z,22.00
2018-05-14T10:33:11.236Z,22.40
2018-05-14T10:35:38.191Z,22.40
2018-05-14T10:38:04.756Z,22.40
2018-05-14T10:40:31.337Z,22.30
2018-05-14T10:42:57.895Z,22.30
2018-05-14T10:45:24.485Z,22.30
2018-05-14T10:47:51.068Z,22.10
2018-05-14T10:50:17.653Z,22.50
2018-05-14T10:52:44.317Z,23.00
2018-05-14T10:55:17.857Z,23.00
2018-05-14T10:57:44.827Z,23.50
2018-05-14T11:00:11.368Z,23.50
2018-05-14T11:02:38.320Z,23.70
2018-05-14T11:05:05.313Z,22.80
2018-05-14T11:07:31.843Z,22.80
2018-05-14T11:09:58.463Z,22.30
2018-05-14T11:12:25.272Z,22.50
2018-05-14T11:14:51.856Z,22.40
2018-05-14T11:17:18.460Z,22.60
2018-05-14T11:19:44.999Z,22.70
2018-05-14T11:22:11.568Z,22.40
2018-05-14T11:24:38.135Z,22.60
2018-05-14T11:29:58.901Z,23.30
2018-05-14T11:32:25.860Z,23.30
2018-05-14T11:34:52.813Z,23.00
2018-05-14T11:37:19.720Z,22.80
2018-05-14T11:39:46.327Z,22.80
2018-05-14T11:42:13.252Z,22.70
2018-05-14T11:44:39.826Z,22.70
2018-05-14T11:47:06.768Z,22.80
2018-05-14T11:49:33.299Z,22.80
2018-05-14T11:51:59.882Z,23.10
2018-05-14T11:54:26.863Z,23.50
2018-05-14T11:56:53.487Z,23.60
2018-05-14T11:59:20.451Z,23.20
2018-05-14T12:01:47.376Z,23.70
2018-05-14T12:04:13.956Z,23.70
2018-05-14T12:06:40.869Z,24.10
2018-05-14T12:09:07.453Z,24.10
2018-05-14T12:11:34.408Z,24.60
2018-05-14T12:14:01.352Z,23.80
2018-05-14T12:16:27.941Z,23.80
2018-05-14T12:18:54.488Z,23.10
2018-05-14T12:21:21.069Z,23.40
2018-05-14T12:23:47.656Z,23.40
2018-05-14T12:26:14.195Z,23.50
2018-05-14T12:28:41.154Z,22.90
2018-05-14T12:31:08.082Z,22.70
2018-05-14T12:33:34.664Z,22.70
2018-05-14T12:36:01.671Z,22.80
2018-05-14T12:38:28.213Z,22.80
2018-05-14T12:40:54.784Z,22.40
2018-05-14T12:43:21.337Z,22.00
2018-05-14T12:45:47.912Z,21.90
2018-05-14T12:48:14.858Z,21.60
2018-05-14T12:50:41.784Z,21.60
2018-05-14T12:53:08.364Z,21.60
2018-05-14T12:55:34.952Z,21.60
2018-05-14T12:58:01.521Z,22.00
2018-05-14T13:00:28.101Z,22.50
2018-05-14T13:02:54.640Z,23.00
2018-05-14T13:05:21.593Z,23.10
2018-05-14T13:07:48.543Z,23.00
2018-05-14T13:10:15.469Z,23.20
2018-05-14T13:12:42.051Z,23.20
2018-05-14T13:15:08.964Z,23.30
2018-05-14T13:17:35.536Z,23.30
2018-05-14T13:20:02.130Z,23.40
2018-05-14T13:22:28.687Z,23.20
2018-05-14T13:24:55.259Z,22.70
2018-05-14T13:27:21.814Z,22.60
2018-05-14T13:29:48.422Z,22.80
2018-05-14T13:32:15.012Z,23.20
2018-05-14T13:34:41.567Z,23.30
2018-05-14T13:37:08.143Z,23.40
2018-05-14T13:39:35.077Z,23.60
2018-05-14T13:42:01.663Z,23.60
2018-05-14T13:44:28.251Z,23.90
2018-05-14T13:46:54.816Z,24.20
2018-05-14T13:49:21.413Z,24.00
2018-05-14T13:51:47.991Z,23.60
2018-05-14T13:54:14.580Z,23.40
2018-05-14T13:56:41.529Z,23.50
2018-05-14T13:59:08.485Z,23.90
2018-05-14T14:01:35.444Z,24.30
2018-05-14T14:04:02.361Z,24.50
2018-05-14T14:06:28.943Z,24.50
2018-05-14T14:08:55.511Z,24.90
2018-05-14T14:11:22.482Z,25.10
2018-05-14T14:13:49.105Z,25.10
2018-05-14T14:16:16.016Z,24.80
2018-05-14T14:18:42.588Z,24.80
2018-05-14T14:21:09.132Z,24.70
2018-05-14T14:23:35.855Z,24.80
2018-05-14T14:26:02.324Z,25.00
2018-05-14T14:28:28.877Z,24.80
2018-05-14T14:30:55.462Z,24.00
2018-05-14T14:33:22.383Z,23.50
2018-05-14T14:35:49.068Z,23.50
2018-05-14T14:38:15.589Z,23.50
2018-05-14T14:40:42.523Z,23.90
2018-05-14T14:43:09.100Z,23.90
2018-05-14T14:45:36.032Z,24.40
2018-05-14T14:48:02.645Z,24.50
2018-05-14T14:50:29.240Z,24.50
2018-05-14T14:52:55.798Z,24.50
2018-05-14T14:55:22.756Z,24.30
2018-05-14T14:57:49.713Z,24.30
2018-05-14T15:00:16.679Z,24.50
2018-05-14T15:02:43.628Z,24.30
2018-05-14T15:05:10.545Z,24.10
2018-05-14T15:07:37.124Z,24.10
2018-05-14T15:10:10.901Z,23.90
2018-05-14T15:12:37.469Z,23.90
2018-05-14T15:15:04.103Z,23.60
2018-05-14T15:17:30.652Z,23.40
2018-05-14T15:19:57.314Z,23.30
2018-05-14T15:22:23.856Z,23.20
2018-05-14T15:24:50.507Z,23.00
2018-05-14T15:27:17.095Z,22.70
2018-05-14T15:29:44.064Z,22.40
2018-05-14T15:32:11.001Z,22.30
2018-05-14T15:34:37.928Z,22.10
2018-05-14T15:37:04.532Z,22.10
2018-05-14T15:39:31.117Z,22.30
2018-05-14T15:41:57.661Z,22.20
2018-05-14T15:44:24.283Z,22.10
2018-05-14T15:46:50.835Z,22.10
2018-05-14T15:49:17.408Z,22.20
2018-05-14T15:51:43.993Z,22.10
2018-05-14T15:54:10.925Z,21.80
2018-05-14T15:56:37.508Z,21.80
2018-05-14T15:59:04.105Z,21.60
2018-05-14T16:01:30.700Z,21.50
2018-05-14T16:03:57.656Z,21.50
2018-05-14T16:06:24.612Z,21.50
2018-05-14T16:08:51.568Z,21.50
2018-05-14T16:11:18.137Z,21.50
2018-05-14T16:13:44.723Z,21.70
2018-05-14T16:16:11.341Z,21.70
2018-05-14T16:18:37.879Z,21.70
2018-05-14T16:21:04.468Z,21.70
2018-05-14T16:23:31.421Z,21.60
2018-05-14T16:25:57.985Z,21.40
2018-05-14T16:28:24.588Z,21.30
2018-05-14T16:30:51.170Z,21.10
2018-05-14T16:33:17.785Z,21.10
2018-05-14T16:35:44.397Z,21.00
2018-05-14T16:38:11.321Z,20.80
2018-05-14T16:40:37.907Z,20.80
2018-05-14T16:43:04.849Z,20.70
2018-05-14T16:45:31.812Z,20.50
2018-05-14T16:47:58.747Z,20.50
2018-05-14T16:50:25.312Z,20.50
2018-05-14T16:52:52.268Z,20.50
2018-05-14T16:55:19.200Z,20.50
2018-05-14T16:57:45.821Z,20.50
2018-05-14T17:00:12.463Z,20.40
2018-05-14T17:02:39.065Z,20.30
2018-05-14T17:05:05.648Z,20.20
2018-05-14T17:07:32.392Z,20.10
2018-05-14T17:09:58.968Z,20.10
2018-05-14T17:12:25.612Z,20.10
2018-05-14T17:14:52.164Z,20.00
2018-05-14T17:17:18.816Z,20.00
2018-05-14T17:19:45.356Z,20.00
2018-05-14T17:22:11.932Z,20.10
2018-05-14T17:24:38.508Z,20.10
2018-05-14T17:27:05.437Z,20.00
2018-05-14T17:29:32.021Z,20.00
2018-05-14T17:31:58.947Z,19.80
2018-05-14T17:34:25.561Z,19.80
2018-05-14T17:36:52.169Z,19.80
2018-05-14T17:39:19.108Z,19.90
2018-05-14T17:41:45.698Z,19.90
2018-05-14T17:44:12.236Z,19.90
2018-05-14T17:46:38.833Z,19.90
2018-05-14T17:49:05.421Z,19.90
2018-05-14T17:51:32.337Z,19.70
2018-05-14T17:53:58.903Z,19.70
2018-05-14T17:56:25.449Z,19.60
2018-05-14T17:58:52.056Z,19.60
2018-05-14T18:01:18.666Z,19.50
2018-05-14T18:03:45.608Z,19.30
2018-05-14T18:06:12.576Z,19.30
2018-05-14T18:08:39.497Z,19.30
2018-05-14T18:11:06.142Z,19.30
2018-05-14T18:13:32.689Z,19.30
2018-05-14T18:15:59.241Z,19.20
2018-05-14T18:18:25.911Z,19.20
2018-05-14T18:20:52.920Z,19.20
2018-05-14T18:23:23.524Z,19.20
2018-05-14T18:25:54.531Z,19.20
2018-05-14T18:28:21.253Z,19.10
2018-05-14T18:30:47.948Z,19.10
2018-05-14T18:33:14.583Z,19.00
2018-05-14T18:35:56.045Z,19.00
2018-05-14T18:38:22.648Z,19.00
2018-05-14T18:40:49.248Z,19.00
2018-05-14T18:43:15.780Z,19.00
2018-05-14T18:45:42.753Z,19.00
2018-05-14T18:48:09.344Z,19.00
2018-05-14T18:50:35.929Z,18.90
2018-05-14T18:53:02.929Z,18.90
2018-05-14T18:55:29.477Z,18.90
2018-05-14T18:57:56.134Z,18.90
2018-05-14T19:00:22.767Z,18.80
2018-05-14T19:02:49.388Z,18.80
2018-05-14T19:05:15.976Z,18.70
2018-05-14T19:07:42.519Z,18.70
2018-05-14T19:10:15.059Z,18.80
2018-05-14T19:12:41.978Z,18.70
2018-05-14T19:15:14.594Z,18.70
2018-05-14T19:17:47.321Z,18.60
2018-05-14T19:20:13.900Z,18.60
2018-05-14T19:22:46.478Z,18.60
2018-05-14T19:25:13.110Z,18.60
2018-05-14T19:27:39.704Z,18.60
2018-05-14T19:30:06.256Z,18.50
2018-05-14T19:32:32.844Z,18.50
2018-05-14T19:35:05.497Z,18.40
2018-05-14T19:37:32.151Z,18.40
2018-05-14T19:40:04.812Z,18.40
2018-05-14T19:42:31.356Z,18.30
2018-05-14T19:44:57.950Z,18.30
2018-05-14T19:47:24.508Z,18.30
2018-05-14T19:49:51.476Z,18.20
2018-05-14T19:52:18.048Z,18.20
2018-05-14T19:54:44.588Z,18.10
2018-05-14T19:57:11.208Z,18.00
2018-05-14T19:59:38.118Z,18.00
2018-05-14T20:02:04.699Z,18.00
2018-05-14T20:04:31.718Z,17.90
2018-05-14T20:06:58.338Z,17.90
2018-05-14T20:09:24.983Z,17.80
2018-05-14T20:11:51.538Z,17.80
2018-05-14T20:14:18.144Z,17.70
2018-05-14T20:16:45.105Z,17.60
2018-05-14T20:19:12.024Z,17.60
2018-05-14T20:21:38.587Z,17.60
2018-05-14T20:24:05.814Z,17.50
2018-05-14T20:26:32.417Z,17.40
2018-05-14T20:28:59.535Z,17.50
2018-05-14T20:31:26.084Z,17.50
2018-05-14T20:33:52.686Z,17.50
2018-05-14T20:36:19.613Z,17.40
2018-05-14T20:38:47.467Z,17.40
2018-05-14T20:41:14.064Z,17.40
2018-05-14T20:43:40.980Z,17.30
2018-05-14T20:46:07.841Z,17.30
2018-05-14T20:48:34.631Z,17.30
2018-05-14T20:51:01.480Z,17.30
2018-05-14T20:53:28.053Z,17.30
2018-05-14T20:55:54.987Z,17.10
2018-05-14T20:58:21.558Z,17.20
2018-05-14T21:00:48.477Z,17.00
2018-05-14T21:03:15.243Z,17.00
2018-05-14T21:05:41.814Z,16.90
2018-05-14T21:08:08.393Z,16.80
2018-05-14T21:10:35.088Z,16.70
2018-05-14T21:13:01.669Z,16.70
2018-05-14T21:15:28.245Z,16.70
2018-05-14T21:17:54.876Z,16.70
2018-05-14T21:20:21.467Z,16.70
2018-05-14T21:22:48.034Z,16.70
2018-05-14T21:25:14.594Z,16.80
2018-05-14T21:27:41.918Z,16.80
2018-05-14T21:30:08.885Z,16.80
2018-05-14T21:32:35.421Z,16.80
2018-05-14T21:35:02.016Z,16.80
2018-05-14T21:37:29.179Z,16.80
2018-05-14T21:39:56.136Z,16.80
2018-05-14T21:42:23.085Z,16.80
2018-05-14T21:44:49.992Z,16.80
2018-05-14T21:47:16.578Z,16.90
2018-05-14T21:49:43.120Z,16.90
2018-05-14T21:52:09.696Z,16.90
2018-05-14T21:54:36.681Z,16.90
2018-05-14T21:57:03.245Z,16.90
2018-05-14T21:59:29.832Z,16.80
2018-05-14T22:01:56.475Z,16.80
2018-05-14T22:04:29.932Z,16.70
2018-05-14T22:06:56.510Z,16.70
2018-05-14T22:09:23.144Z,16.70
2018-05-14T22:11:49.732Z,16.70
2018-05-14T22:14:16.271Z,16.70
2018-05-14T22:16:42.865Z,16.70
2018-05-14T22:19:09.436Z,16.70
2018-05-14T22:21:35.972Z,16.70
2018-05-14T22:24:02.567Z,16.60
2018-05-14T22:26:29.134Z,16.50
2018-05-14T22:28:56.084Z,16.40
2018-05-14T22:31:23.041Z,16.40
2018-05-14T22:33:49.965Z,16.40
2018-05-14T22:36:16.552Z,16.40
2018-05-14T22:38:43.112Z,16.40
2018-05-14T22:41:09.695Z,16.30
2018-05-14T22:43:36.280Z,16.20
2018-05-14T22:46:03.195Z,16.10
2018-05-14T22:48:29.781Z,16.10
2018-05-14T22:50:56.327Z,16.10
2018-05-14T22:53:22.901Z,16.10
2018-05-14T22:55:49.876Z,16.10
2018-05-14T22:58:16.415Z,16.10
2018-05-14T23:00:42.983Z,16.10
2018-05-14T23:03:09.535Z,16.10
2018-05-14T23:05:36.072Z,16.10
2018-05-14T23:08:02.676Z,16.10
2018-05-14T23:10:29.653Z,16.10
2018-05-14T23:12:56.209Z,16.10
2018-05-14T23:15:22.779Z,16.00
2018-05-14T23:17:49.364Z,16.00
2018-05-14T23:20:15.983Z,16.00
2018-05-14T23:22:42.545Z,15.90
2018-05-14T23:25:09.092Z,15.80
2018-05-14T23:27:35.688Z,15.70
2018-05-14T23:30:02.329Z,15.70
2018-05-14T23:32:29.249Z,15.60
2018-05-14T23:34:55.832Z,15.60
2018-05-14T23:37:22.751Z,15.60
2018-05-14T23:39:49.341Z,15.60
2018-05-14T23:42:15.933Z,15.50
2018-05-14T23:44:42.495Z,15.50
2018-05-14T23:47:09.088Z,15.40
2018-05-14T23:49:35.632Z,15.30
2018-05-14T23:52:02.224Z,15.20
2018-05-14T23:54:28.823Z,15.20
2018-05-14T23:56:55.733Z,15.00
2018-05-14T23:59:22.321Z,15.00
